KOJC/OJC METAR and TAF weather

Enter ICAO airport designator
Station Type Date Time Source
KOJC METAR 2019/12/06 23:53 UTC NOAA

KOJC 062353Z 34003KT 10SM CLR 03/M05 A3037 RMK AO2 SLP291 T00281050 10056 20028 51012


Station Type Date Time Source
KOJC Decoded METAR 2019/12/06 23:53 UTC NOAA

OLATHE JOHNSON CO EXECUTIVE, KS, United States (KOJC) 38-50N 94-44W 326M
Dec 06, 2019 - 06:53 PM EST / 2019.12.06 2353 UTC
Wind: from the NNW (340 degrees) at 3 MPH (3 KT):0
Visibility: 10 mile(s):0
Sky conditions: clear
Temperature: 37.0 F (2.8 C)
Dew Point: 23.0 F (-5.0 C)
Relative Humidity: 56%
Pressure (altimeter): 30.37 in. Hg (1028 hPa)
Pressure tendency: 0.04 inches (1.2 hPa) higher than three hours ago
ob: KOJC 062353Z 34003KT 10SM CLR 03/M05 A3037 RMK AO2 SLP291 T00281050 10056 20028 51012
cycle: 0

Station Type Date Time Source
KOJC TAF UTC NOAA

Error!

Example: see airport list